createdAt,value
2022-09-07T00:01:05.697Z,9.02
2022-09-07T00:03:33.995Z,8.13
2022-09-07T00:06:07.762Z,10.33
2022-09-07T00:08:35.985Z,9.23
2022-09-07T00:11:07.380Z,6.60
2022-09-07T00:13:37.531Z,8.07
2022-09-07T00:16:07.673Z,6.97
2022-09-07T00:18:36.212Z,6.22
2022-09-07T00:21:06.455Z,7.33
2022-09-07T00:23:36.100Z,8.13
2022-09-07T00:26:07.481Z,7.17
2022-09-07T00:28:37.172Z,6.00
2022-09-07T00:31:05.295Z,6.70
2022-09-07T00:33:33.341Z,7.10
2022-09-07T00:36:01.458Z,6.50
2022-09-07T00:38:29.549Z,7.00
2022-09-07T00:40:57.622Z,7.07
2022-09-07T00:43:34.994Z,5.87
2022-09-07T00:46:03.906Z,6.33
2022-09-07T00:48:36.580Z,5.80
2022-09-07T00:51:07.406Z,5.47
2022-09-07T00:53:39.248Z,4.37
2022-09-07T00:56:08.425Z,5.27
2022-09-07T00:58:40.863Z,5.30
2022-09-07T01:01:09.873Z,5.17
2022-09-07T01:03:41.855Z,5.13
2022-09-07T01:06:16.598Z,4.70
2022-09-07T01:08:46.063Z,5.37
2022-09-07T01:11:14.411Z,4.97
2022-09-07T01:13:46.313Z,5.27
2022-09-07T01:16:19.783Z,4.60
2022-09-07T01:18:57.108Z,7.93
2022-09-07T01:21:28.056Z,5.13
2022-09-07T01:24:22.687Z,4.10
2022-09-07T01:27:24.290Z,6.43
2022-09-07T01:30:04.025Z,4.40
2022-09-07T01:32:44.347Z,4.37
2022-09-07T01:35:19.937Z,6.70
2022-09-07T01:37:57.155Z,3.80
2022-09-07T01:40:35.451Z,4.03
2022-09-07T01:43:11.428Z,4.40
2022-09-07T01:45:42.984Z,3.03
2022-09-07T01:48:15.976Z,3.10
2022-09-07T01:50:49.292Z,3.27
2022-09-07T01:53:22.317Z,4.40
2022-09-07T01:55:54.422Z,7.87
2022-09-07T01:58:27.603Z,3.70
2022-09-07T02:01:04.147Z,4.20
2022-09-07T02:03:37.086Z,7.13
2022-09-07T02:06:12.291Z,6.93
2022-09-07T02:08:45.185Z,5.07
2022-09-07T02:11:18.724Z,7.23
2022-09-07T02:13:51.876Z,3.90
2022-09-07T02:16:25.264Z,5.97
2022-09-07T02:18:57.139Z,4.50
2022-09-07T02:21:31.292Z,5.60
2022-09-07T02:24:05.404Z,4.70
2022-09-07T02:26:37.693Z,7.10
2022-09-07T02:29:05.941Z,3.60
2022-09-07T02:31:35.486Z,4.40
2022-09-07T02:34:03.678Z,3.90
2022-09-07T02:36:37.565Z,3.37
2022-09-07T02:39:05.713Z,4.47
2022-09-07T02:41:36.088Z,3.57
2022-09-07T02:44:08.907Z,3.70
2022-09-07T02:46:53.688Z,5.33
2022-09-07T02:49:36.335Z,4.63
2022-09-07T02:52:13.862Z,3.27
2022-09-07T02:54:55.775Z,3.63
2022-09-07T02:57:33.624Z,2.77
2022-09-07T03:05:53.200Z,3.80
2022-09-07T03:09:42.240Z,2.80
2022-09-07T03:12:12.628Z,3.77
2022-09-07T03:14:42.433Z,2.77
2022-09-07T03:17:11.488Z,3.10
2022-09-07T03:19:39.691Z,2.80
2022-09-07T03:22:08.154Z,2.57
2022-09-07T03:24:36.744Z,2.90
2022-09-07T03:27:05.082Z,2.90
2022-09-07T03:29:34.499Z,3.60
2022-09-07T03:32:02.589Z,4.23
2022-09-07T03:34:31.451Z,3.20
2022-09-07T03:36:59.486Z,3.57
2022-09-07T03:39:27.745Z,2.57
2022-09-07T03:41:55.850Z,2.93
2022-09-07T03:44:23.915Z,2.70
2022-09-07T03:46:53.292Z,4.10
2022-09-07T03:49:21.334Z,3.38
2022-09-07T03:51:49.404Z,4.18
2022-09-07T03:54:17.450Z,3.53
2022-09-07T03:56:45.494Z,2.97
2022-09-07T03:59:13.527Z,3.70
2022-09-07T04:01:41.665Z,4.35
2022-09-07T04:04:11.176Z,7.55
2022-09-07T04:06:39.331Z,5.32
2022-09-07T04:09:09.864Z,4.38
2022-09-07T04:11:38.030Z,4.82
2022-09-07T04:14:06.078Z,4.93
2022-09-07T04:16:34.342Z,6.13
2022-09-07T04:19:02.532Z,6.15
2022-09-07T04:21:33.593Z,5.90
2022-09-07T04:24:01.999Z,6.05
2022-09-07T04:26:31.718Z,5.20
2022-09-07T04:29:01.092Z,5.68
2022-09-07T04:31:29.534Z,5.65
2022-09-07T04:33:57.753Z,6.00
2022-09-07T04:36:25.890Z,4.97
2022-09-07T04:39:00.379Z,4.68
2022-09-07T04:41:29.448Z,5.13
2022-09-07T04:43:59.121Z,6.60
2022-09-07T04:46:29.780Z,6.10
2022-09-07T04:53:43.438Z,8.07
2022-09-07T04:56:16.880Z,7.53
2022-09-07T04:58:45.301Z,5.77
2022-09-07T05:01:14.955Z,6.07
2022-09-07T05:03:43.712Z,7.73
2022-09-07T05:06:12.444Z,9.02
2022-09-07T05:08:42.580Z,9.07
2022-09-07T05:11:13.122Z,8.27
2022-09-07T05:13:41.581Z,6.87
2022-09-07T05:16:11.576Z,7.97
2022-09-07T05:18:39.852Z,9.43
2022-09-07T05:21:12.738Z,8.60
2022-09-07T05:23:41.061Z,10.80
2022-09-07T05:26:09.149Z,10.00
2022-09-07T05:28:39.313Z,10.60
2022-09-07T05:31:23.741Z,11.37
2022-09-07T05:36:41.509Z,16.00
2022-09-07T05:39:10.692Z,13.40
2022-09-07T05:45:20.900Z,13.13
2022-09-07T05:47:50.742Z,12.43
2022-09-07T05:50:18.868Z,14.02
2022-09-07T05:52:47.969Z,15.17
2022-09-07T05:55:29.382Z,19.07
2022-09-07T05:57:58.265Z,14.18
2022-09-07T06:00:27.680Z,13.93
2022-09-07T06:02:55.834Z,12.35
2022-09-07T06:05:23.885Z,15.75
2022-09-07T06:07:53.093Z,14.30
2022-09-07T06:13:09.757Z,12.35
2022-09-07T06:15:39.218Z,14.55
2022-09-07T06:18:07.275Z,13.35
2022-09-07T06:20:35.318Z,12.65
2022-09-07T06:23:03.387Z,11.93
2022-09-07T06:25:31.415Z,12.90
2022-09-07T06:27:59.660Z,14.90
2022-09-07T06:30:27.793Z,13.82
2022-09-07T06:32:57.171Z,12.60
2022-09-07T06:35:25.182Z,13.75
2022-09-07T06:37:53.243Z,12.95
2022-09-07T06:40:21.249Z,12.10
2022-09-07T06:42:49.297Z,10.25
2022-09-07T06:45:17.478Z,13.65
2022-09-07T06:47:45.539Z,12.40
2022-09-07T06:50:15.197Z,12.05
2022-09-07T06:55:31.283Z,13.07
2022-09-07T06:57:59.328Z,14.55
2022-09-07T07:00:27.389Z,15.73
2022-09-07T07:02:55.531Z,13.68
2022-09-07T07:05:25.052Z,13.32
2022-09-07T07:07:53.135Z,12.80
2022-09-07T07:10:24.728Z,19.70
2022-09-07T07:12:57.439Z,15.68
2022-09-07T07:15:28.149Z,17.27
2022-09-07T07:18:02.324Z,16.48
2022-09-07T07:20:39.280Z,16.10
2022-09-07T07:23:07.805Z,14.95
2022-09-07T07:25:36.539Z,17.60
2022-09-07T07:30:56.218Z,18.77
2022-09-07T07:36:15.404Z,16.40
2022-09-07T07:39:01.250Z,16.25
2022-09-07T07:44:20.682Z,12.90
2022-09-07T07:46:50.089Z,17.92
2022-09-07T07:49:18.602Z,17.60
2022-09-07T07:54:37.114Z,18.60
2022-09-07T07:57:05.913Z,16.15
2022-09-07T07:59:33.944Z,16.77
2022-09-07T08:02:04.721Z,19.70
2022-09-07T08:04:33.974Z,16.02
2022-09-07T08:07:09.506Z,15.85
2022-09-07T08:09:39.937Z,15.57
2022-09-07T08:12:08.281Z,17.95
2022-09-07T08:14:40.965Z,15.98
2022-09-07T08:17:09.755Z,13.90
2022-09-07T08:19:37.939Z,17.92
2022-09-07T08:22:07.885Z,14.15
2022-09-07T08:24:35.922Z,15.45
2022-09-07T08:27:04.580Z,15.90
2022-09-07T08:29:35.220Z,17.30
2022-09-07T08:32:05.046Z,14.23
2022-09-07T08:34:33.145Z,16.40
2022-09-07T08:37:01.169Z,21.38
2022-09-07T08:39:31.102Z,14.63
2022-09-07T08:42:22.606Z,13.38
2022-09-07T08:44:54.873Z,15.07
2022-09-07T08:47:32.989Z,16.73
2022-09-07T08:50:05.348Z,14.35
2022-09-07T08:52:43.407Z,15.57
2022-09-07T08:55:17.470Z,12.50
2022-09-07T08:57:50.467Z,14.05
2022-09-07T09:00:20.026Z,12.60
2022-09-07T09:03:28.616Z,13.57
2022-09-07T09:05:45.619Z,13.48
2022-09-07T09:08:27.574Z,12.93
2022-09-07T09:11:05.098Z,12.63
2022-09-07T09:13:48.475Z,13.18
2022-09-07T09:16:22.151Z,12.82
2022-09-07T09:19:06.156Z,16.15
2022-09-07T09:21:36.073Z,12.05
2022-09-07T09:24:15.115Z,13.48
2022-09-07T09:26:47.576Z,11.52
2022-09-07T09:29:28.018Z,11.93
2022-09-07T09:31:56.506Z,12.73
2022-09-07T09:34:29.438Z,12.98
2022-09-07T09:36:58.394Z,14.52
2022-09-07T09:39:29.538Z,11.70
2022-09-07T09:42:02.361Z,11.35
2022-09-07T09:44:35.096Z,11.55
2022-09-07T09:49:53.686Z,11.27
2022-09-07T09:52:29.752Z,11.57
2022-09-07T09:55:17.292Z,10.40
2022-09-07T10:04:04.254Z,7.65
2022-09-07T10:06:33.187Z,7.47
2022-09-07T10:09:03.334Z,7.93
2022-09-07T10:14:36.258Z,6.85
2022-09-07T10:17:13.827Z,6.78
2022-09-07T10:19:44.092Z,9.13
2022-09-07T10:22:30.784Z,7.95
2022-09-07T10:24:58.830Z,10.23
2022-09-07T10:27:33.026Z,8.95
2022-09-07T10:30:05.898Z,10.80
2022-09-07T10:32:56.872Z,11.27
2022-09-07T10:35:29.566Z,9.38
2022-09-07T10:38:11.895Z,9.20
2022-09-07T10:40:45.348Z,10.82
2022-09-07T10:43:24.588Z,9.43
2022-09-07T10:46:08.205Z,9.20
2022-09-07T10:48:47.159Z,7.60
2022-09-07T10:51:18.830Z,7.82
2022-09-07T10:56:53.817Z,9.00
2022-09-07T11:02:37.252Z,7.20
2022-09-07T11:05:16.217Z,8.48
2022-09-07T11:07:59.300Z,9.05
2022-09-07T11:14:14.027Z,6.40
2022-09-07T11:16:50.967Z,6.93
2022-09-07T11:19:35.911Z,6.10
2022-09-07T11:22:19.036Z,6.82
2022-09-07T11:27:45.762Z,6.03
2022-09-07T11:38:03.746Z,6.03
2022-09-07T11:40:35.657Z,6.80
2022-09-07T11:43:14.073Z,5.68
2022-09-07T11:45:46.005Z,5.22
2022-09-07T11:48:19.960Z,6.00
2022-09-07T11:50:53.249Z,6.45
2022-09-07T11:53:25.787Z,5.32
2022-09-07T11:55:57.906Z,3.90
2022-09-07T11:59:03.641Z,4.72
2022-09-07T12:01:42.104Z,4.65
2022-09-07T12:04:39.979Z,6.32
2022-09-07T12:07:32.012Z,4.88
2022-09-07T12:10:30.671Z,3.90
2022-09-07T12:13:14.049Z,4.32
2022-09-07T12:15:52.054Z,2.92
2022-09-07T12:18:33.352Z,3.75
2022-09-07T12:21:01.479Z,4.30
2022-09-07T12:23:31.280Z,3.83
2022-09-07T12:26:51.462Z,5.70
2022-09-07T12:29:22.214Z,3.05
2022-09-07T12:32:07.325Z,5.05
2022-09-07T12:34:54.297Z,3.03
2022-09-07T12:37:42.680Z,3.38
2022-09-07T12:40:56.207Z,3.88
2022-09-07T12:43:46.152Z,4.20
2022-09-07T12:46:21.421Z,2.15
2022-09-07T12:48:56.753Z,4.10
2022-09-07T12:54:31.492Z,5.32
2022-09-07T13:00:02.259Z,2.80
2022-09-07T13:02:51.876Z,3.75
2022-09-07T13:05:33.336Z,5.88
2022-09-07T13:08:37.543Z,4.97
2022-09-07T13:11:34.151Z,4.60
2022-09-07T13:14:08.668Z,3.85
2022-09-07T13:20:07.850Z,2.60
2022-09-07T13:22:58.878Z,4.15
2022-09-07T13:26:03.204Z,5.55
2022-09-07T13:28:51.621Z,4.10
2022-09-07T13:31:49.015Z,2.80
2022-09-07T13:34:45.056Z,2.67
2022-09-07T13:37:22.863Z,4.00
2022-09-07T13:39:54.043Z,5.40
2022-09-07T13:42:25.834Z,4.50
2022-09-07T13:44:57.117Z,3.80
2022-09-07T13:47:38.005Z,2.67
2022-09-07T13:50:23.767Z,3.40
2022-09-07T13:53:10.775Z,3.20
2022-09-07T13:55:43.871Z,3.13
2022-09-07T13:58:17.868Z,3.00
2022-09-07T14:00:53.891Z,3.38
2022-09-07T14:03:27.057Z,4.32
2022-09-07T14:06:14.626Z,2.67
2022-09-07T14:08:47.369Z,4.45
2022-09-07T14:11:20.044Z,2.58
2022-09-07T14:14:06.681Z,3.70
2022-09-07T14:16:35.121Z,5.30
2022-09-07T14:19:16.622Z,6.35
2022-09-07T14:21:44.893Z,2.95
2022-09-07T14:24:28.612Z,3.17
2022-09-07T14:26:56.819Z,3.80
2022-09-07T14:29:26.931Z,2.25
2022-09-07T14:31:55.265Z,4.53
2022-09-07T14:34:29.747Z,4.47
2022-09-07T14:37:01.502Z,3.47
2022-09-07T14:39:31.027Z,1.38
2022-09-07T14:42:03.834Z,2.92
2022-09-07T14:44:38.728Z,2.38
2022-09-07T14:47:11.668Z,2.17
2022-09-07T14:49:41.725Z,1.77
2022-09-07T14:52:19.412Z,5.57
2022-09-07T14:54:52.979Z,3.20
2022-09-07T14:57:32.502Z,2.22
2022-09-07T15:00:20.601Z,2.90
2022-09-07T15:02:48.895Z,2.72
2022-09-07T15:05:23.105Z,3.45
2022-09-07T15:07:52.801Z,2.85
2022-09-07T15:10:41.326Z,4.93
2022-09-07T15:13:25.936Z,3.90
2022-09-07T15:16:02.439Z,3.80
2022-09-07T15:18:55.749Z,3.15
2022-09-07T15:21:27.455Z,1.80
2022-09-07T15:23:58.558Z,3.05
2022-09-07T15:29:20.046Z,3.17
2022-09-07T15:32:01.150Z,2.20
2022-09-07T15:34:32.325Z,3.40
2022-09-07T15:37:03.711Z,3.08
2022-09-07T15:39:34.429Z,4.88
2022-09-07T15:42:59.637Z,8.07
2022-09-07T15:44:50.669Z,4.15
2022-09-07T15:50:08.302Z,7.35
2022-09-07T15:52:37.822Z,3.55
2022-09-07T15:55:08.715Z,2.47
2022-09-07T15:58:02.229Z,3.58
2022-09-07T16:00:24.835Z,2.33
2022-09-07T16:03:09.114Z,2.65
2022-09-07T16:05:40.887Z,2.20
2022-09-07T16:08:25.981Z,2.05
2022-09-07T16:10:55.366Z,2.80
2022-09-07T16:13:24.699Z,2.47
2022-09-07T16:15:52.759Z,2.00
2022-09-07T16:18:20.870Z,2.50
2022-09-07T16:20:52.606Z,3.25
2022-09-07T16:23:23.471Z,4.00
2022-09-07T16:25:58.527Z,3.83
2022-09-07T16:28:27.118Z,2.63
2022-09-07T16:30:56.320Z,2.53
2022-09-07T16:33:31.620Z,2.30
2022-09-07T16:36:06.204Z,3.85
2022-09-07T16:38:44.018Z,2.55
2022-09-07T16:41:14.788Z,3.80
2022-09-07T16:43:42.916Z,2.97
2022-09-07T16:46:14.124Z,3.75
2022-09-07T16:48:42.912Z,3.15
2022-09-07T16:51:14.103Z,2.53
2022-09-07T16:53:43.837Z,3.25
2022-09-07T16:56:14.910Z,2.60
2022-09-07T16:58:46.247Z,2.88
2022-09-07T17:01:16.470Z,3.03
2022-09-07T17:03:45.337Z,3.20
2022-09-07T17:06:15.089Z,3.95
2022-09-07T17:08:45.052Z,2.42
2022-09-07T17:11:15.842Z,4.78
2022-09-07T17:13:44.867Z,7.60
2022-09-07T17:16:14.547Z,7.00
2022-09-07T17:21:33.249Z,6.07
2022-09-07T17:24:06.905Z,5.28
2022-09-07T17:26:35.359Z,3.97
2022-09-07T17:29:03.740Z,2.67
2022-09-07T17:34:21.415Z,4.28
2022-09-07T17:36:49.574Z,2.15
2022-09-07T17:39:19.627Z,4.65
2022-09-07T17:41:48.689Z,3.17
2022-09-07T17:44:18.784Z,3.50
2022-09-07T17:46:46.812Z,2.08
2022-09-07T17:49:16.646Z,4.13
2022-09-07T17:51:45.733Z,3.65
2022-09-07T17:54:15.870Z,1.60
2022-09-07T17:56:45.993Z,2.50
2022-09-07T18:02:02.231Z,1.65
2022-09-07T18:04:30.421Z,2.10
2022-09-07T18:06:58.527Z,3.10
2022-09-07T18:09:26.559Z,2.75
2022-09-07T18:11:56.036Z,1.83
2022-09-07T18:14:24.194Z,2.80
2022-09-07T18:16:53.901Z,4.10
2022-09-07T18:19:21.953Z,2.47
2022-09-07T18:21:50.590Z,4.05
2022-09-07T18:24:23.134Z,2.22
2022-09-07T18:26:52.796Z,3.97
2022-09-07T18:29:29.361Z,2.25
2022-09-07T18:32:00.591Z,5.32
2022-09-07T18:34:30.913Z,3.25
2022-09-07T18:36:59.694Z,7.30
2022-09-07T18:39:28.592Z,4.55
2022-09-07T18:41:57.105Z,3.13
2022-09-07T18:47:22.268Z,4.13
2022-09-07T18:49:57.053Z,3.83
2022-09-07T18:55:13.122Z,8.43
2022-09-07T18:57:41.267Z,3.17
2022-09-07T19:00:13.803Z,4.18
2022-09-07T19:02:42.005Z,2.95
2022-09-07T19:07:59.584Z,2.67
2022-09-07T19:10:27.711Z,3.42
2022-09-07T19:12:56.362Z,3.13
2022-09-07T19:15:25.847Z,4.32
2022-09-07T19:17:53.840Z,6.03
2022-09-07T19:20:21.925Z,3.28
2022-09-07T19:22:49.961Z,4.07
2022-09-07T19:25:19.335Z,2.55
2022-09-07T19:27:47.398Z,1.58
2022-09-07T19:30:17.434Z,3.35
2022-09-07T19:32:46.814Z,3.08
2022-09-07T19:35:14.874Z,4.25
2022-09-07T19:37:42.915Z,4.90
2022-09-07T19:40:15.843Z,3.42
2022-09-07T19:42:46.594Z,4.28
2022-09-07T19:45:15.482Z,4.90
2022-09-07T19:47:43.514Z,3.25
2022-09-07T19:50:13.046Z,3.80
2022-09-07T19:52:41.016Z,4.70
2022-09-07T19:55:09.955Z,1.95
2022-09-07T19:57:37.972Z,4.72
2022-09-07T20:00:07.004Z,5.88
2022-09-07T20:02:35.011Z,2.42
2022-09-07T20:05:02.961Z,3.95
2022-09-07T20:07:32.325Z,4.50
2022-09-07T20:10:00.296Z,2.53
2022-09-07T20:12:28.280Z,3.90
2022-09-07T20:14:56.303Z,3.00
2022-09-07T20:17:24.264Z,3.28
2022-09-07T20:19:52.242Z,3.50
2022-09-07T20:22:20.324Z,3.95
2022-09-07T20:24:49.671Z,4.35
2022-09-07T20:27:17.663Z,2.97
2022-09-07T20:29:45.694Z,1.90
2022-09-07T20:32:13.657Z,2.63
2022-09-07T20:34:41.649Z,4.40
2022-09-07T20:37:09.673Z,2.83
2022-09-07T20:39:39.551Z,6.60
2022-09-07T20:42:09.301Z,3.83
2022-09-07T20:44:37.372Z,5.43
2022-09-07T20:47:05.659Z,4.18
2022-09-07T20:49:33.757Z,2.97
2022-09-07T20:52:01.770Z,2.58
2022-09-07T20:54:29.784Z,2.50
2022-09-07T20:57:00.066Z,4.07
2022-09-07T20:59:33.015Z,4.43
2022-09-07T21:02:01.063Z,2.97
2022-09-07T21:04:29.156Z,4.43
2022-09-07T21:06:57.245Z,3.03
2022-09-07T21:09:25.354Z,5.40
2022-09-07T21:11:56.884Z,5.53
2022-09-07T21:14:25.323Z,3.83
2022-09-07T21:16:54.778Z,2.90
2022-09-07T21:19:22.976Z,5.32
2022-09-07T21:21:50.983Z,7.63
2022-09-07T21:24:20.420Z,4.88
2022-09-07T21:26:49.811Z,3.08
2022-09-07T21:29:20.299Z,3.85
2022-09-07T21:31:49.028Z,6.75
2022-09-07T21:34:18.573Z,5.10
2022-09-07T21:36:46.806Z,5.20
2022-09-07T21:39:15.141Z,4.20
2022-09-07T21:41:43.759Z,4.75
2022-09-07T21:44:13.717Z,3.67
2022-09-07T21:46:42.894Z,4.70
2022-09-07T21:49:11.228Z,4.63
2022-09-07T21:51:40.631Z,4.28
2022-09-07T21:54:08.758Z,3.22
2022-09-07T21:56:37.403Z,4.65
2022-09-07T21:59:06.600Z,1.67
2022-09-07T22:01:34.870Z,3.95
2022-09-07T22:04:05.516Z,2.45
2022-09-07T22:06:34.106Z,4.00
2022-09-07T22:09:05.119Z,7.00
2022-09-07T22:11:33.304Z,2.80
2022-09-07T22:14:02.891Z,6.07
2022-09-07T22:16:31.461Z,6.70
2022-09-07T22:18:59.568Z,4.22
2022-09-07T22:21:29.517Z,4.80
2022-09-07T22:23:59.422Z,4.30
2022-09-07T22:26:31.192Z,2.85
2022-09-07T22:28:59.913Z,3.63
2022-09-07T22:31:30.465Z,3.10
2022-09-07T22:33:59.624Z,5.63
2022-09-07T22:36:30.900Z,4.35
2022-09-07T22:39:00.796Z,2.53
2022-09-07T22:41:32.105Z,4.82
2022-09-07T22:44:00.831Z,5.93
2022-09-07T22:46:31.082Z,3.30
2022-09-07T22:49:00.380Z,2.22
2022-09-07T22:51:28.524Z,3.72
2022-09-07T22:53:57.021Z,4.63
2022-09-07T22:56:27.541Z,2.53
2022-09-07T22:58:59.478Z,5.65
2022-09-07T23:01:29.138Z,4.32
2022-09-07T23:03:57.720Z,5.72
2022-09-07T23:06:27.661Z,4.93
2022-09-07T23:08:57.563Z,5.20
2022-09-07T23:11:26.700Z,4.38
2022-09-07T23:13:57.395Z,4.72
2022-09-07T23:16:26.124Z,4.75
2022-09-07T23:18:54.546Z,4.53
2022-09-07T23:21:22.884Z,6.40
2022-09-07T23:23:52.237Z,5.55
2022-09-07T23:26:20.958Z,3.67
2022-09-07T23:28:53.368Z,3.72
2022-09-07T23:31:23.781Z,2.22
2022-09-07T23:33:52.276Z,3.95
2022-09-07T23:36:20.780Z,3.47
2022-09-07T23:38:48.886Z,3.97
2022-09-07T23:41:17.842Z,3.90
2022-09-07T23:43:46.286Z,6.50
2022-09-07T23:46:15.471Z,4.47
2022-09-07T23:48:46.008Z,3.25
2022-09-07T23:51:16.203Z,4.32
2022-09-07T23:58:03.491Z,3.90
